Decoded Metar for KMLT (MILLINOCKET in ME, USA) (IATA:MLT) | Meteo·Mobile Aviation Weather
aviador You're here:

KMLT Decoded Metar

MILLINOCKET in ME, USA
Report Time2018-08-21 10:53:00
UTC Time2018-08-21 12:12:30
Flight Rules Old
WindCalm
Visibility402 m
Phenomena:Fog
Clouds:N/A
Expected CloudBase > 400 ft AGL from Temp-Dew spread
Ceiling200 ft
Temp13°C (ISA -1)
Dew Point12°C (94% RH)
QNH1022 hPa
Density Alt148 ft
Elevation404 ft
Report Wrong Elevation
Raw Report
KMLT 211053Z AUTO 00000KT 1/4SM FG VV002 13/12 A3018 RMK AO2
SLP223 T01280122 TSNO=

Extra information for KMLT:More info

Metar Taf Metar & Taf Last 4 Metars F.Rules Stats Wind Profile Meteogram Temp Stats Airport Information Weather charts Add Link Nearby VenuesMetar ALERT Operation Metar Decoded Social comments

AIRNAV info for KMLT